Time;durP1;ratioP1;P1;durP2;ratioP2;P2;SDS_P1;SDS_P2;PMS_P1;PMS_P2;Temp;Humidity;BMP_temperature;BMP_pressure;BME280_temperature;BME280_humidity;BME280_pressure;Samples;Min_cycle;Max_cycle;Signal;HPM_P1;HPM_P2
2022/03/24 00:00:10;;;;;;;51.35;33.88;;;;;;;8.33;55.08;102700.69;3580810;40;20052;-64
2022/03/24 00:02:35;;;;;;;48.75;32.88;;;;;;;8.32;55.69;102712.31;3580092;40;20579;-63
2022/03/24 00:05:01;;;;;;;51.08;36.00;;;;;;;8.32;56.27;102713.19;3580189;40;20053;-63
2022/03/24 00:07:28;;;;;;;50.08;34.92;;;;;;;8.22;56.06;102697.38;3583441;40;20063;-62
2022/03/24 00:09:54;;;;;;;45.45;32.83;;;;;;;8.29;56.39;102709.72;3576945;40;20059;-63
2022/03/24 00:12:21;;;;;;;49.63;33.63;;;;;;;8.28;56.47;102710.63;3577097;40;20075;-63
2022/03/24 00:14:47;;;;;;;48.40;33.25;;;;;;;8.25;55.51;102716.06;3579522;40;20048;-63
2022/03/24 00:17:13;;;;;;;48.35;31.90;;;;;;;8.21;55.67;102717.00;3583714;40;20118;-63
2022/03/24 00:19:38;;;;;;;47.08;32.40;;;;;;;8.16;56.52;102709.09;3577118;40;20052;-63
2022/03/24 00:22:04;;;;;;;49.33;33.60;;;;;;;8.13;56.70;102710.03;3583208;40;20052;-63
2022/03/24 00:24:30;;;;;;;46.75;32.38;;;;;;;8.14;56.24;102709.09;3580545;40;20088;-63
2022/03/24 00:26:56;;;;;;;45.95;32.55;;;;;;;8.11;55.88;102702.94;3574744;40;20083;-64
2022/03/24 00:29:21;;;;;;;47.67;32.40;;;;;;;8.10;56.22;102696.72;3573827;40;20053;-63
2022/03/24 00:31:47;;;;;;;43.35;31.23;;;;;;;8.21;56.54;102704.50;3578958;40;20054;-63
2022/03/24 00:34:12;;;;;;;50.63;32.58;;;;;;;8.21;56.31;102709.84;3579959;40;20075;-63
2022/03/24 00:36:38;;;;;;;50.80;33.50;;;;;;;8.19;56.68;102708.16;3577677;40;20057;-63
2022/03/24 00:39:04;;;;;;;47.15;32.08;;;;;;;8.14;56.68;102703.75;3580299;40;20055;-63
2022/03/24 00:41:30;;;;;;;53.17;32.22;;;;;;;8.10;56.56;102702.06;3580274;40;20091;-63
2022/03/24 00:43:56;;;;;;;50.97;32.58;;;;;;;8.08;57.25;102703.88;3579921;40;20052;-63
2022/03/24 00:46:22;;;;;;;46.25;31.73;;;;;;;8.02;57.44;102701.31;3579183;40;20052;-63
2022/03/24 00:48:53;;;;;;;46.50;30.42;;;;;;;7.95;57.31;102696.16;3579351;40;20044;-63
2022/03/24 00:51:19;;;;;;;44.97;30.17;;;;;;;7.94;57.11;102697.06;3578633;40;20052;-63
2022/03/24 00:53:46;;;;;;;46.58;31.27;;;;;;;7.93;57.25;102701.56;3578693;40;20059;-63
2022/03/24 00:56:12;;;;;;;48.17;31.92;;;;;;;7.91;57.03;102690.84;3581470;40;20066;-64
2022/03/24 00:58:38;;;;;;;44.90;29.88;;;;;;;7.78;57.01;102677.75;3577086;40;20060;-63
2022/03/24 01:01:06;;;;;;;47.30;31.88;;;;;;;7.77;58.03;102686.69;3579714;40;20060;-63
2022/03/24 01:03:32;;;;;;;48.13;30.92;;;;;;;7.73;58.41;102690.34;3579927;40;20041;-64
2022/03/24 01:05:57;;;;;;;48.08;31.52;;;;;;;7.75;59.23;102693.88;3575520;40;20049;-63
2022/03/24 01:08:23;;;;;;;46.85;32.28;;;;;;;7.64;58.82;102680.69;3580619;40;20052;-63
2022/03/24 01:10:51;;;;;;;47.85;31.60;;;;;;;7.70;58.54;102680.56;3578188;40;20070;-63
2022/03/24 01:13:21;;;;;;;43.72;31.30;;;;;;;7.56;57.82;102656.78;3579769;40;20052;-63
2022/03/24 01:15:47;;;;;;;43.25;29.95;;;;;;;7.68;58.46;102680.63;3579211;40;20044;-63
2022/03/24 01:18:14;;;;;;;44.90;31.08;;;;;;;7.69;58.62;102670.78;3581594;40;20366;-63
2022/03/24 01:20:43;;;;;;;48.28;31.52;;;;;;;7.63;59.41;102677.16;3580605;40;20052;-63
2022/03/24 01:23:11;;;;;;;48.28;32.40;;;;;;;7.44;60.95;102667.72;3577857;40;20556;-63
2022/03/24 01:25:36;;;;;;;49.97;33.78;;;;;;;7.32;61.05;102641.19;3578392;40;20048;-64
2022/03/24 01:28:03;;;;;;;46.17;32.38;;;;;;;7.49;59.89;102671.19;3574921;40;20056;-63
2022/03/24 01:30:28;;;;;;;48.40;31.77;;;;;;;7.46;59.56;102675.72;3576293;40;20080;-63
2022/03/24 01:32:54;;;;;;;49.13;32.97;;;;;;;7.46;58.95;102671.25;3577970;40;20138;-63
2022/03/24 01:35:19;;;;;;;45.03;31.40;;;;;;;7.45;58.92;102669.47;3578493;40;20053;-64
2022/03/24 01:37:45;;;;;;;46.10;33.15;;;;;;;7.40;58.71;102666.00;3575282;40;20391;-63
2022/03/24 01:40:13;;;;;;;49.58;32.60;;;;;;;7.36;58.54;102664.31;3579137;40;20075;-63
2022/03/24 01:42:40;;;;;;;46.33;31.58;;;;;;;7.31;58.61;102658.16;3580694;40;20512;-62
2022/03/24 01:45:09;;;;;;;48.75;33.13;;;;;;;7.30;58.76;102659.09;3579173;40;20049;-63
2022/03/24 01:47:36;;;;;;;50.88;34.15;;;;;;;7.27;58.68;102648.44;3575382;40;20137;-63
2022/03/24 01:50:06;;;;;;;46.67;33.75;;;;;;;7.18;59.76;102650.38;3578169;40;20379;-63
2022/03/24 01:52:31;;;;;;;49.67;33.35;;;;;;;7.09;60.50;102655.88;3581491;40;20307;-63
2022/03/24 01:55:00;;;;;;;55.40;33.67;;;;;;;6.97;61.12;102640.03;3579101;40;20053;-63
2022/03/24 01:57:28;;;;;;;53.92;34.05;;;;;;;6.98;60.55;102656.06;3581954;40;20347;-63
2022/03/24 01:59:54;;;;;;;48.20;32.83;;;;;;;6.96;60.86;102654.34;3579878;40;20068;-63
2022/03/24 02:02:21;;;;;;;51.08;32.45;;;;;;;6.96;61.50;102644.50;3579739;40;20092;-63
2022/03/24 02:04:48;;;;;;;52.17;33.83;;;;;;;6.80;62.39;102615.41;3579653;40;20056;-63
2022/03/24 02:07:14;;;;;;;48.38;32.95;;;;;;;6.91;62.58;102635.72;3580851;40;20072;-63
2022/03/24 02:09:40;;;;;;;55.72;33.00;;;;;;;6.87;61.87;102643.78;3581714;40;20045;-63
2022/03/24 02:12:09;;;;;;;49.90;33.58;;;;;;;6.77;62.24;102643.06;3581120;40;20126;-63
2022/03/24 02:14:35;;;;;;;47.35;33.72;;;;;;;6.67;62.37;102653.03;3579787;40;20440;-63
2022/03/24 02:17:03;;;;;;;49.70;32.92;;;;;;;6.67;61.91;102650.34;3580871;40;20064;-63
2022/03/24 02:19:30;;;;;;;49.03;33.00;;;;;;;6.68;61.63;102649.44;3579021;40;20064;-63
2022/03/24 02:22:24;;;;;;;49.88;32.97;;;;;;;6.72;60.91;102640.50;3575281;40;20422;-63
2022/03/24 02:24:50;;;;;;;50.30;33.80;;;;;;;6.73;60.90;102642.25;3579355;40;20319;-63
2022/03/24 02:27:16;;;;;;;47.03;32.67;;;;;;;6.72;60.91;102640.50;3580948;40;20044;-62
2022/03/24 02:29:42;;;;;;;48.13;33.00;;;;;;;6.49;61.27;102605.22;3577432;40;20362;-63
2022/03/24 02:32:11;;;;;;;50.45;33.60;;;;;;;6.60;61.74;102630.00;3578603;40;20637;-63
2022/03/24 02:34:40;;;;;;;50.00;33.25;;;;;;;6.64;61.76;102642.41;3582054;40;20056;-66
2022/03/24 02:37:22;;;;;;;50.22;33.42;;;;;;;6.60;61.95;102640.69;3577859;40;20080;-63
2022/03/24 02:39:54;;;;;;;52.90;33.63;;;;;;;6.52;62.36;102634.56;3578105;40;20060;-64
2022/03/24 02:42:29;;;;;;;46.80;32.17;;;;;;;6.52;61.83;102642.59;3575129;40;20060;-63
2022/03/24 02:45:04;;;;;;;48.05;32.92;;;;;;;6.50;61.97;102639.94;3578720;40;20060;-62
2022/03/24 02:47:30;;;;;;;51.58;33.38;;;;;;;6.46;62.19;102650.69;3574927;40;20057;-63
2022/03/24 02:49:58;;;;;;;53.38;33.65;;;;;;;6.39;62.80;102643.69;3575824;40;20091;-63
2022/03/24 02:52:25;;;;;;;49.70;33.42;;;;;;;6.33;61.96;102643.78;3574786;40;20443;-64
2022/03/24 02:54:51;;;;;;;49.33;32.97;;;;;;;6.35;61.88;102647.31;3577086;40;20076;-63
2022/03/24 02:57:18;;;;;;;48.78;32.20;;;;;;;6.33;61.56;102643.78;3580172;40;20090;-63
2022/03/24 02:59:44;;;;;;;47.28;32.35;;;;;;;6.30;61.66;102643.81;3577516;40;20064;-63
2022/03/24 03:02:13;;;;;;;49.15;33.85;;;;;;;6.30;61.30;102641.16;3581736;40;20058;-63
2022/03/24 03:04:42;;;;;;;52.00;33.08;;;;;;;6.23;61.04;102646.56;3575373;40;20273;-63
2022/03/24 03:07:09;;;;;;;54.33;34.15;;;;;;;6.18;61.61;102636.88;3575213;40;20084;-63
2022/03/24 03:09:38;;;;;;;52.45;35.13;;;;;;;6.22;62.70;102646.63;3577600;40;20048;-62
2022/03/24 03:12:05;;;;;;;49.33;33.47;;;;;;;6.16;62.04;102642.25;3579092;40;20053;-63
2022/03/24 03:14:32;;;;;;;49.63;33.70;;;;;;;6.16;62.46;102639.56;3580220;40;20055;-63
2022/03/24 03:16:59;;;;;;;50.13;34.08;;;;;;;6.11;62.35;102636.06;3580440;40;20315;-63
2022/03/24 03:19:26;;;;;;;50.60;34.20;;;;;;;6.19;61.65;102647.53;3581000;40;20118;-63
2022/03/24 03:21:52;;;;;;;55.60;34.15;;;;;;;6.19;61.39;102649.34;3579235;40;20067;-63
2022/03/24 03:24:21;;;;;;;50.38;34.22;;;;;;;6.16;61.49;102647.59;3576671;40;20064;-62
2022/03/24 03:26:47;;;;;;;53.70;35.15;;;;;;;5.93;62.08;102609.63;3577575;40;20060;-62
2022/03/24 03:29:14;;;;;;;51.28;34.10;;;;;;;6.05;62.78;102644.16;3587300;40;20462;-63
2022/03/24 03:31:40;;;;;;;49.00;34.45;;;;;;;6.05;62.06;102645.03;3579682;40;20302;-62
2022/03/24 03:34:08;;;;;;;53.22;34.55;;;;;;;6.03;62.75;102637.97;3579675;40;20056;-62
2022/03/24 03:36:37;;;;;;;52.40;34.45;;;;;;;6.05;63.43;102645.03;3575785;40;20056;-62
2022/03/24 03:39:07;;;;;;;52.10;35.05;;;;;;;5.99;63.08;102636.22;3575243;40;20053;-62
2022/03/24 03:41:34;;;;;;;50.67;35.03;;;;;;;5.95;62.60;102638.06;3580329;40;20371;-61
2022/03/24 03:44:00;;;;;;;49.33;34.33;;;;;;;5.96;62.55;102645.19;3575841;40;20643;-62
2022/03/24 03:46:26;;;;;;;51.50;34.28;;;;;;;5.90;62.69;102644.31;3577759;40;20056;-63
2022/03/24 03:48:51;;;;;;;48.70;33.20;;;;;;;5.79;63.89;102642.69;3575530;40;20071;-62
2022/03/24 03:51:17;;;;;;;53.40;34.03;;;;;;;5.78;63.44;102654.28;3575434;40;20059;-62
2022/03/24 03:53:43;;;;;;;51.88;34.30;;;;;;;5.78;63.31;102646.28;3576398;40;20264;-63
2022/03/24 03:56:09;;;;;;;55.78;34.65;;;;;;;5.76;63.25;102649.84;3579542;40;20295;-62
2022/03/24 03:58:36;;;;;;;52.50;34.42;;;;;;;5.58;63.14;102608.25;3579878;40;20088;-63
2022/03/24 04:01:04;;;;;;;52.00;34.67;;;;;;;5.78;62.76;102648.06;3579132;40;20079;-62
2022/03/24 04:03:33;;;;;;;56.55;34.67;;;;;;;5.76;62.30;102650.72;3579873;40;20074;-61
2022/03/24 04:06:09;;;;;;;49.25;34.00;;;;;;;5.76;62.52;102648.06;3574336;40;20055;-62
2022/03/24 04:08:37;;;;;;;54.30;35.45;;;;;;;5.75;63.41;102658.78;3575077;40;20342;-62
2022/03/24 04:11:07;;;;;;;51.30;34.88;;;;;;;5.71;64.09;102647.25;3580921;40;20049;-63
2022/03/24 04:13:36;;;;;;;53.60;36.00;;;;;;;5.64;63.85;102650.88;3575894;40;20063;-63
2022/03/24 04:16:04;;;;;;;53.08;35.05;;;;;;;5.65;63.67;102650.00;3578005;40;20056;-63
2022/03/24 04:18:29;;;;;;;55.30;35.42;;;;;;;5.55;64.11;102645.66;3576394;40;20056;-63
2022/03/24 04:20:56;;;;;;;53.58;34.33;;;;;;;5.53;63.83;102644.81;3574427;40;20086;-61
2022/03/24 04:23:22;;;;;;;52.58;35.15;;;;;;;5.46;63.00;102638.66;3573846;40;20083;-63
2022/03/24 04:25:48;;;;;;;53.15;35.03;;;;;;;5.52;62.95;102648.38;3576927;40;20145;-63
2022/03/24 04:28:14;;;;;;;56.63;35.78;;;;;;;5.27;62.96;102611.31;3573772;40;20061;-62
2022/03/24 04:30:42;;;;;;;55.13;34.28;;;;;;;5.44;63.13;102647.56;3578370;40;20040;-63
2022/03/24 04:33:09;;;;;;;52.08;35.08;;;;;;;5.37;63.36;102640.56;3579062;40;20057;-63
2022/03/24 04:35:35;;;;;;;53.78;35.90;;;;;;;5.34;63.57;102646.78;3579610;40;20052;-63
2022/03/24 04:38:02;;;;;;;56.08;35.67;;;;;;;5.30;63.74;102643.28;3579029;40;20071;-63
2022/03/24 04:40:28;;;;;;;55.13;35.65;;;;;;;5.26;64.03;102644.19;3578484;40;20040;-63
2022/03/24 04:42:55;;;;;;;57.53;37.20;;;;;;;5.24;64.64;102646.00;3580631;40;20052;-63
2022/03/24 04:45:23;;;;;;;50.45;34.50;;;;;;;5.19;63.47;102644.28;3581590;40;20421;-62
2022/03/24 04:47:51;;;;;;;57.38;37.60;;;;;;;5.08;63.30;102633.75;3579410;40;20061;-63
2022/03/24 04:50:19;;;;;;;55.22;36.28;;;;;;;5.20;63.53;102652.28;3580899;40;20375;-63
2022/03/24 04:52:47;;;;;;;57.55;35.63;;;;;;;5.16;64.01;102637.19;3579741;40;20064;-63
2022/03/24 04:55:13;;;;;;;52.03;34.25;;;;;;;5.27;63.97;102647.75;3582175;40;20121;-62
2022/03/24 04:57:40;;;;;;;52.67;34.28;;;;;;;5.28;63.38;102644.19;3578500;40;20117;-63
2022/03/24 05:00:08;;;;;;;53.58;35.65;;;;;;;5.31;63.50;102652.16;3576250;40;20096;-63
2022/03/24 05:02:35;;;;;;;51.35;35.20;;;;;;;5.33;63.57;102653.03;3579216;40;20051;-63
2022/03/24 05:05:01;;;;;;;52.65;34.53;;;;;;;5.31;64.15;102652.16;3577164;40;20052;-62
2022/03/24 05:07:27;;;;;;;51.97;35.13;;;;;;;5.29;63.64;102643.28;3581769;40;20059;-63
2022/03/24 05:09:55;;;;;;;50.88;34.63;;;;;;;5.25;64.61;102653.09;3578641;40;20281;-63
2022/03/24 05:12:24;;;;;;;49.85;33.95;;;;;;;5.24;64.41;102656.66;3582700;40;20279;-62
2022/03/24 05:14:50;;;;;;;56.83;35.47;;;;;;;5.25;64.65;102658.44;3579682;40;21635;-63
2022/03/24 05:17:17;;;;;;;57.20;36.90;;;;;;;5.21;64.59;102654.03;3575359;40;20487;-61
2022/03/24 05:19:48;;;;;;;56.65;35.53;;;;;;;5.08;65.69;102639.06;3580654;40;20082;-62
2022/03/24 05:22:14;;;;;;;58.13;36.72;;;;;;;5.05;65.71;102647.09;3580275;40;20052;-62
2022/03/24 05:24:41;;;;;;;55.75;37.03;;;;;;;5.04;65.53;102646.22;3577619;40;20056;-63
2022/03/24 05:27:08;;;;;;;54.30;36.13;;;;;;;5.08;65.78;102655.06;3581629;40;20052;-62
2022/03/24 05:29:35;;;;;;;51.75;35.75;;;;;;;5.06;66.53;102660.38;3577066;40;20088;-63
2022/03/24 05:32:00;;;;;;;53.55;36.63;;;;;;;5.07;66.01;102664.84;3573127;40;20053;-63
2022/03/24 05:34:26;;;;;;;53.55;36.15;;;;;;;5.09;65.40;102656.81;3575304;40;20164;-62
2022/03/24 05:36:53;;;;;;;52.75;35.95;;;;;;;5.10;65.62;102667.44;3575738;40;20053;-62
2022/03/24 05:39:19;;;;;;;56.35;36.33;;;;;;;5.11;65.99;102663.03;3575479;40;20049;-63
2022/03/24 05:41:45;;;;;;;56.83;35.75;;;;;;;5.07;65.42;102659.50;3579722;40;20599;-63
2022/03/24 05:44:10;;;;;;;57.10;37.63;;;;;;;5.11;64.93;102666.56;3580585;40;20096;-63
2022/03/24 05:46:42;;;;;;;58.10;36.50;;;;;;;5.10;64.84;102670.13;3576392;40;20379;-61
2022/03/24 05:49:14;;;;;;;52.92;36.60;;;;;;;5.08;65.74;102671.06;3578062;40;20080;-61
2022/03/24 05:51:42;;;;;;;56.55;35.83;;;;;;;5.10;65.76;102671.91;3578037;40;20045;-61
2022/03/24 05:54:09;;;;;;;52.08;34.78;;;;;;;5.06;65.23;102664.84;3578172;40;20056;-61
2022/03/24 05:56:35;;;;;;;55.30;35.50;;;;;;;5.09;64.88;102680.81;3580402;40;20064;-61
2022/03/24 05:59:01;;;;;;;56.03;35.67;;;;;;;5.05;64.13;102671.97;3579905;40;20130;-62
2022/03/24 06:01:27;;;;;;;54.50;35.72;;;;;;;5.06;63.66;102679.03;3579824;40;20048;-61
2022/03/24 06:03:53;;;;;;;55.40;34.80;;;;;;;5.06;63.71;102676.38;3578371;40;20053;-61
2022/03/24 06:06:22;;;;;;;52.50;34.33;;;;;;;5.06;63.97;102683.50;3581200;40;20064;-61
2022/03/24 06:08:52;;;;;;;56.47;35.22;;;;;;;5.08;63.48;102687.06;3580049;40;20040;-62
2022/03/24 06:11:19;;;;;;;54.92;35.38;;;;;;;4.83;64.68;102641.94;3578643;40;20044;-62
2022/03/24 06:13:46;;;;;;;57.47;37.08;;;;;;;5.07;65.14;102674.59;3579725;40;20074;-62
2022/03/24 06:16:15;;;;;;;58.58;38.83;;;;;;;5.26;65.00;102686.84;3579698;40;20056;-61
2022/03/24 06:18:42;;;;;;;60.88;36.53;;;;;;;5.41;64.26;102684.94;3575671;40;20048;-62
2022/03/24 06:21:09;;;;;;;54.92;37.55;;;;;;;5.48;64.54;102684.84;3580194;40;20055;-62
2022/03/24 06:23:35;;;;;;;52.25;35.33;;;;;;;5.64;64.08;102687.34;3579522;40;20076;-62
2022/03/24 06:26:03;;;;;;;60.42;37.30;;;;;;;5.71;62.47;102681.94;3580850;40;20635;-62
2022/03/24 06:28:29;;;;;;;54.00;36.08;;;;;;;5.60;63.20;102649.16;3577013;40;20328;-61
2022/03/24 06:30:55;;;;;;;59.15;36.90;;;;;;;5.93;62.59;102687.03;3580038;40;20052;-62
2022/03/24 06:33:20;;;;;;;50.92;34.63;;;;;;;5.95;62.39;102661.22;3577758;40;20311;-62
2022/03/24 06:35:48;;;;;;;54.50;36.30;;;;;;;6.20;62.26;102697.34;3576348;40;20056;-62
2022/03/24 06:38:16;;;;;;;59.42;36.95;;;;;;;6.28;61.56;102691.94;3578866;40;20051;-62
2022/03/24 06:40:42;;;;;;;56.47;37.00;;;;;;;6.42;61.95;102694.41;3578460;40;20094;-62
2022/03/24 06:43:09;;;;;;;58.35;37.80;;;;;;;6.50;61.16;102681.78;3576128;40;20067;-62
2022/03/24 06:45:35;;;;;;;58.30;37.28;;;;;;;6.54;61.55;102672.84;3578756;40;20365;-62
2022/03/24 06:48:02;;;;;;;60.60;37.97;;;;;;;6.84;60.39;102691.97;3579204;40;20045;-62
2022/03/24 06:50:28;;;;;;;60.25;37.97;;;;;;;7.01;60.14;102689.91;3578084;40;20130;-61
2022/03/24 06:52:54;;;;;;;59.78;39.13;;;;;;;7.14;60.11;102683.44;3582064;40;20052;-61
2022/03/24 06:55:21;;;;;;;57.92;37.85;;;;;;;7.34;59.53;102690.22;3577119;40;20052;-62
2022/03/24 06:57:47;;;;;;;59.33;39.15;;;;;;;7.55;60.12;102688.91;3581646;40;20090;-62
2022/03/24 07:00:15;;;;;;;58.08;39.47;;;;;;;7.65;59.64;102691.38;3578055;40;20482;-62
2022/03/24 07:02:43;;;;;;;58.35;39.35;;;;;;;7.81;58.65;102694.66;3579292;40;20048;-62
2022/03/24 07:05:13;;;;;;;61.15;40.08;;;;;;;7.92;58.83;102686.38;3576859;40;20071;-61
2022/03/24 07:07:41;;;;;;;60.63;39.55;;;;;;;7.87;57.71;102661.50;3581042;40;20446;-61
2022/03/24 07:10:08;;;;;;;60.50;40.50;;;;;;;8.19;57.02;102692.09;3583006;40;20125;-62
2022/03/24 07:12:35;;;;;;;53.35;39.17;;;;;;;8.37;56.09;102691.63;3579310;40;20125;-62
2022/03/24 07:15:08;;;;;;;60.00;40.35;;;;;;;8.43;57.17;102672.78;3583430;40;20055;-62
2022/03/24 07:17:35;;;;;;;58.00;39.15;;;;;;;8.75;55.53;102700.63;3582593;40;20088;-62
2022/03/24 07:20:04;;;;;;;55.13;38.45;;;;;;;8.70;54.57;102651.63;3581357;40;20089;-62
2022/03/24 07:22:35;;;;;;;52.63;37.00;;;;;;;9.23;54.33;102698.53;3581298;40;20067;-62
2022/03/24 07:25:02;;;;;;;54.47;38.13;;;;;;;9.53;53.26;102694.13;3580980;40;20049;-62
2022/03/24 07:27:29;;;;;;;61.35;40.40;;;;;;;9.86;53.02;102698.59;3587692;40;20106;-62
2022/03/24 07:29:55;;;;;;;52.80;37.22;;;;;;;10.17;51.37;102698.56;3582557;40;20133;-62
2022/03/24 07:32:21;;;;;;;53.92;35.85;;;;;;;10.55;50.15;102700.09;3581381;40;20056;-62
2022/03/24 07:34:46;;;;;;;54.85;37.63;;;;;;;10.88;49.48;102708.91;3580792;40;20061;-62
2022/03/24 07:37:12;;;;;;;57.78;37.30;;;;;;;11.22;48.04;102701.50;3583446;40;20055;-62
2022/03/24 07:39:38;;;;;;;52.15;35.63;;;;;;;11.59;47.12;102703.78;3581738;40;20078;-63
2022/03/24 07:42:04;;;;;;;50.75;33.67;;;;;;;11.90;45.09;102702.69;3580560;40;20060;-63
2022/03/24 07:44:30;;;;;;;46.53;32.85;;;;;;;12.18;43.71;102707.91;3581039;40;20146;-63
2022/03/24 07:46:56;;;;;;;44.53;32.28;;;;;;;12.58;42.48;102706.34;3582601;40;20383;-62
2022/03/24 07:49:21;;;;;;;45.25;32.35;;;;;;;12.95;42.69;102703.91;3579336;40;20048;-63
2022/03/24 07:51:47;;;;;;;45.38;31.95;;;;;;;13.30;41.70;102693.47;3580581;40;20387;-63
2022/03/24 07:54:13;;;;;;;47.10;33.10;;;;;;;13.60;40.67;102695.75;3582511;40;20063;-60
2022/03/24 07:56:39;;;;;;;45.35;32.70;;;;;;;13.95;40.46;102702.25;3580501;40;20389;-60
2022/03/24 07:59:06;;;;;;;46.63;33.60;;;;;;;14.30;40.00;102699.72;3581959;40;20052;-60
2022/03/24 08:01:35;;;;;;;40.88;31.75;;;;;;;14.58;38.46;102702.88;3581405;40;20048;-60
2022/03/24 08:04:04;;;;;;;44.58;33.55;;;;;;;14.89;38.39;102706.81;3579383;40;20507;-61
2022/03/24 08:06:33;;;;;;;46.80;33.30;;;;;;;15.20;37.47;102705.25;3577536;40;20280;-60
2022/03/24 08:08:59;;;;;;;52.85;35.17;;;;;;;15.45;36.49;102705.75;3578734;40;20118;-61
2022/03/24 08:11:26;;;;;;;45.03;34.75;;;;;;;15.68;36.17;102707.25;3579691;40;20067;-63
2022/03/24 08:13:56;;;;;;;41.30;34.00;;;;;;;15.88;36.61;102708.03;3575706;40;20040;-61
2022/03/24 08:16:25;;;;;;;45.22;33.40;;;;;;;16.04;35.04;102708.94;3573946;40;20053;-60
2022/03/24 08:18:51;;;;;;;43.72;32.38;;;;;;;16.23;33.21;102703.38;3577075;40;20051;-63
2022/03/24 08:21:17;;;;;;;41.88;31.70;;;;;;;16.60;34.50;102709.44;3579570;40;20419;-61
2022/03/24 08:23:43;;;;;;;37.55;29.50;;;;;;;16.77;31.26;102708.50;3577674;40;21272;-61
2022/03/24 08:26:09;;;;;;;38.08;30.30;;;;;;;16.88;31.06;102723.22;3579158;40;20051;-61
2022/03/24 08:28:35;;;;;;;38.85;29.80;;;;;;;16.99;30.94;102719.00;3581748;40;20379;-61
2022/03/24 08:31:02;;;;;;;41.75;30.48;;;;;;;17.31;30.03;102714.34;3581514;40;20044;-62
2022/03/24 08:33:28;;;;;;;37.03;30.48;;;;;;;17.52;30.11;102715.78;3581272;40;20150;-61
2022/03/24 08:35:54;;;;;;;40.47;30.17;;;;;;;17.78;30.13;102718.78;3580313;40;20093;-63
2022/03/24 08:38:19;;;;;;;40.15;31.48;;;;;;;17.98;29.58;102720.22;3582166;40;20060;-61
2022/03/24 08:40:45;;;;;;;50.17;31.17;;;;;;;18.16;28.46;102720.94;3581027;40;20071;-61
2022/03/24 08:43:11;;;;;;;39.10;31.15;;;;;;;18.41;29.20;102720.22;3581342;40;20713;-61
2022/03/24 08:45:37;;;;;;;37.50;30.30;;;;;;;18.48;28.66;102721.56;3581162;40;20118;-62
2022/03/24 08:48:06;;;;;;;38.70;30.42;;;;;;;18.59;28.18;102716.31;3581921;40;20054;-62
2022/03/24 08:50:32;;;;;;;41.78;32.00;;;;;;;18.70;28.19;102712.88;3580860;40;20047;-62
2022/03/24 08:52:58;;;;;;;40.75;31.08;;;;;;;18.92;27.30;102715.06;3580521;40;20056;-60
2022/03/24 08:55:24;;;;;;;37.55;30.67;;;;;;;19.18;27.13;102719.63;3580063;40;20063;-62
2022/03/24 08:57:49;;;;;;;41.78;29.02;;;;;;;19.51;26.18;102715.56;3581912;40;20059;-61
2022/03/24 09:00:17;;;;;;;38.72;29.67;;;;;;;19.58;26.86;102708.69;3579328;40;20059;-62
2022/03/24 09:02:46;;;;;;;38.03;29.40;;;;;;;19.55;26.34;102717.09;3578053;40;20079;-61
2022/03/24 09:05:13;;;;;;;33.35;27.15;;;;;;;19.85;24.61;102725.03;3580800;40;20044;-61
2022/03/24 09:07:40;;;;;;;35.15;27.23;;;;;;;19.93;23.60;102700.75;3580392;40;20053;-61
2022/03/24 09:10:10;;;;;;;30.92;26.40;;;;;;;20.18;23.72;102720.84;3581410;40;20074;-61
2022/03/24 09:12:38;;;;;;;35.75;29.23;;;;;;;20.25;24.39;102724.88;3579838;40;20127;-61
2022/03/24 09:15:09;;;;;;;33.42;28.30;;;;;;;20.37;24.79;102726.72;3579664;40;20067;-61
2022/03/24 09:17:37;;;;;;;29.42;24.40;;;;;;;20.56;22.89;102722.66;3579773;40;20056;-63
2022/03/24 09:20:09;;;;;;;29.48;24.30;;;;;;;20.74;23.95;102734.06;3582126;40;20074;-61
2022/03/24 09:22:36;;;;;;;35.17;27.30;;;;;;;20.87;23.10;102732.19;3579677;40;20056;-61
2022/03/24 09:25:03;;;;;;;27.95;24.80;;;;;;;20.98;22.36;102736.81;3580541;40;20044;-61
2022/03/24 09:27:29;;;;;;;28.38;25.08;;;;;;;20.97;21.85;102725.03;3578703;40;20065;-61
2022/03/24 09:29:54;;;;;;;27.23;22.70;;;;;;;21.09;22.21;102739.59;3580974;40;20059;-61
2022/03/24 09:32:20;;;;;;;25.10;20.08;;;;;;;21.19;21.26;102729.72;3584721;40;20303;-61
2022/03/24 09:34:46;;;;;;;24.13;20.88;;;;;;;21.38;20.95;102739.28;3575903;40;20083;-61
2022/03/24 09:37:13;;;;;;;25.55;22.50;;;;;;;21.39;20.49;102732.81;3582260;40;20063;-61
2022/03/24 09:39:40;;;;;;;30.42;24.65;;;;;;;21.43;22.26;102732.44;3582007;40;20049;-61
2022/03/24 09:42:06;;;;;;;24.88;20.65;;;;;;;21.39;21.68;102736.41;3583018;40;20389;-61
2022/03/24 09:44:32;;;;;;;24.55;20.95;;;;;;;21.41;19.73;102730.81;3582788;40;20052;-62
2022/03/24 09:46:58;;;;;;;22.33;19.90;;;;;;;21.46;21.56;102732.22;3575816;40;20100;-61
2022/03/24 09:49:25;;;;;;;25.35;22.13;;;;;;;21.46;21.14;102726.72;3577022;40;20549;-62
2022/03/24 09:51:50;;;;;;;26.20;21.70;;;;;;;21.62;21.17;102717.31;3577866;40;20380;-62
2022/03/24 09:54:16;;;;;;;26.05;22.23;;;;;;;21.81;20.40;102724.97;3577150;40;20064;-61
2022/03/24 09:56:42;;;;;;;23.70;20.10;;;;;;;21.78;20.24;102726.06;3579841;40;20096;-61
2022/03/24 09:59:09;;;;;;;25.48;21.85;;;;;;;21.68;20.12;102730.53;3577682;40;20198;-61
2022/03/24 10:01:39;;;;;;;24.42;21.45;;;;;;;21.62;22.00;102723.66;3582969;40;20407;-61
2022/03/24 10:04:18;;;;;;;25.48;20.48;;;;;;;21.56;21.59;102730.50;3579741;40;20056;-61
2022/03/24 10:07:02;;;;;;;24.80;20.05;;;;;;;21.55;19.76;102731.50;3577764;40;20119;-61
2022/03/24 10:09:44;;;;;;;21.98;18.83;;;;;;;21.58;18.85;102724.91;3575897;40;20126;-61
2022/03/24 10:12:36;;;;;;;28.27;22.23;;;;;;;21.53;20.02;102719.81;3575541;40;20126;-61
2022/03/24 10:15:13;;;;;;;23.27;19.23;;;;;;;21.73;19.71;102723.72;3576923;40;20093;-61
2022/03/24 10:17:50;;;;;;;24.70;19.90;;;;;;;21.78;21.69;102718.72;3572804;40;20390;-61
2022/03/24 10:20:15;;;;;;;24.65;21.52;;;;;;;21.85;20.90;102719.13;3577131;40;20405;-61
2022/03/24 10:22:57;;;;;;;24.08;21.45;;;;;;;21.90;21.77;102714.16;3580393;40;20044;-60
2022/03/24 10:25:33;;;;;;;22.17;19.58;;;;;;;21.79;19.17;102673.09;3579001;40;20048;-60
2022/03/24 10:28:17;;;;;;;23.17;18.70;;;;;;;22.17;19.73;102710.19;3582724;40;20482;-61
2022/03/24 10:30:57;;;;;;;18.42;16.45;;;;;;;22.29;17.34;102708.34;3582098;40;20133;-62
2022/03/24 10:33:33;;;;;;;22.90;17.88;;;;;;;22.37;17.40;102709.44;3604032;23;20133;-64
2022/03/24 10:36:13;;;;;;;19.60;17.30;;;;;;;22.28;18.10;102684.69;3588066;40;20054;-63
2022/03/24 10:38:45;;;;;;;21.65;18.25;;;;;;;22.59;17.84;102715.91;3590995;40;20062;-63
2022/03/24 10:41:18;;;;;;;21.15;18.50;;;;;;;22.65;17.64;102707.19;3591423;40;20052;-65
2022/03/24 10:43:46;;;;;;;23.17;18.80;;;;;;;22.65;18.08;102708.03;3581860;40;20061;-63
2022/03/24 10:46:27;;;;;;;19.17;17.08;;;;;;;22.62;18.18;102707.44;3582716;40;20095;-64
2022/03/24 10:48:54;;;;;;;20.92;17.40;;;;;;;22.78;18.25;102707.88;3580922;40;20060;-64
2022/03/24 10:51:31;;;;;;;21.13;16.65;;;;;;;22.83;18.05;102708.34;3581577;40;20199;-63
2022/03/24 10:54:15;;;;;;;20.52;18.20;;;;;;;22.84;17.43;102707.38;3580608;40;20139;-64
2022/03/24 10:57:02;;;;;;;23.75;17.13;;;;;;;22.80;17.69;102694.91;3578290;40;20057;-63
2022/03/24 10:59:35;;;;;;;25.15;18.40;;;;;;;23.05;19.53;102701.09;3578919;40;20106;-63
2022/03/24 11:02:01;;;;;;;22.35;18.10;;;;;;;23.04;18.25;102704.84;3580758;40;20393;-63
2022/03/24 11:04:26;;;;;;;20.38;18.00;;;;;;;23.18;16.63;102701.78;3579706;40;20073;-64
2022/03/24 11:06:53;;;;;;;18.95;16.50;;;;;;;23.39;16.89;102708.16;3577959;40;20066;-63
2022/03/24 11:09:26;;;;;;;20.83;17.45;;;;;;;23.48;17.41;102700.16;3576590;40;20060;-63
2022/03/24 11:12:27;;;;;;;26.92;19.05;;;;;;;23.57;17.08;102707.56;3575423;40;20190;-64
2022/03/24 11:15:06;;;;;;;19.65;14.73;;;;;;;23.48;17.00;102706.50;3577008;40;20052;-63
2022/03/24 11:17:36;;;;;;;19.33;14.68;;;;;;;23.30;17.72;102700.72;3576529;40;20048;-63